Actual water levels and discharges of Morava river

Lanžhot

Date and time (UTC) H (cm) Q (m³/s)
19. 5. 2021 03:10 333 228
19. 5. 2021 03:00 334 229
19. 5. 2021 02:00 339 234
19. 5. 2021 01:00 345 241
19. 5. 2021 00:00 350 246
18. 5. 2021 23:00 354 250
18. 5. 2021 22:00 360 257
18. 5. 2021 21:00 362 259
18. 5. 2021 20:00 363 260
18. 5. 2021 19:00 362 259
18. 5. 2021 18:00 361 258
18. 5. 2021 17:00 356 252
18. 5. 2021 16:00 352 248
18. 5. 2021 15:00 347 243

H - water level, Q - discharge

Strážnice

Date and time (UTC) H (cm) Q (m³/s)
19. 5. 2021 03:20 391 180
19. 5. 2021 03:00 393 182
19. 5. 2021 02:00 400 187
19. 5. 2021 01:00 408 193
19. 5. 2021 00:00 415 199
18. 5. 2021 23:00 422 204
18. 5. 2021 22:00 429 210
18. 5. 2021 21:00 436 216
18. 5. 2021 20:00 442 221
18. 5. 2021 19:00 449 227
18. 5. 2021 18:00 456 233
18. 5. 2021 17:00 465 240
18. 5. 2021 16:00 473 247
18. 5. 2021 15:00 480 254

H - water level, Q - discharge
more information

Spytihněv

Date and time (UTC) H (cm) Q (m³/s)
19. 5. 2021 03:20 277 159
19. 5. 2021 03:00 279 160
19. 5. 2021 02:00 282 164
19. 5. 2021 01:00 283 166
19. 5. 2021 00:00 283 165
18. 5. 2021 23:00 281 162
18. 5. 2021 22:00 299 182
18. 5. 2021 21:00 302 186
18. 5. 2021 20:00 305 189
18. 5. 2021 19:00 310 195
18. 5. 2021 18:00 318 204
18. 5. 2021 17:00 325 211
18. 5. 2021 16:00 328 214
18. 5. 2021 15:00 329 216

H - water level, Q - discharge

Kroměříž

Date and time (UTC) H (cm) Q (m³/s)
19. 5. 2021 03:20 272 135
19. 5. 2021 03:00 273 136
19. 5. 2021 02:00 276 139
19. 5. 2021 01:00 280 143
19. 5. 2021 00:00 285 149
18. 5. 2021 23:00 289 153
18. 5. 2021 22:00 290 154
18. 5. 2021 21:00 293 157
18. 5. 2021 20:00 299 163
18. 5. 2021 19:00 301 165
18. 5. 2021 18:00 300 164
18. 5. 2021 17:00 307 172
18. 5. 2021 16:00 318 184
18. 5. 2021 15:00 322 188

H - water level, Q - discharge
more information

Olomouc-Nové Sady tok

Date and time (UTC) H (cm) Q (m³/s)
19. 5. 2021 03:20 175 40.5
19. 5. 2021 03:00 175 41
19. 5. 2021 02:00 176 41
19. 5. 2021 01:00 176 41
19. 5. 2021 00:00 176 41
18. 5. 2021 23:00 177 41
18. 5. 2021 22:00 177 41
18. 5. 2021 21:00 178 42
18. 5. 2021 20:00 178 42
18. 5. 2021 19:00 179 42
18. 5. 2021 18:00 181 43
18. 5. 2021 17:00 182 44
18. 5. 2021 16:00 182 44
18. 5. 2021 15:00 182 44

H - water level, Q - discharge

Moravičany

Date and time (UTC) H (cm) Q (m³/s)
19. 5. 2021 03:20 104 15.9
19. 5. 2021 03:00 104 16
19. 5. 2021 02:00 103 16
19. 5. 2021 01:00 104 16
19. 5. 2021 00:00 104 16
18. 5. 2021 23:00 105 16
18. 5. 2021 22:00 104 16
18. 5. 2021 21:00 105 16
18. 5. 2021 20:00 105 16
18. 5. 2021 19:00 105 16
18. 5. 2021 18:00 105 16
18. 5. 2021 17:00 106 17
18. 5. 2021 16:00 106 17
18. 5. 2021 15:00 106 17

H - water level, Q - discharge
Source data
Labe Basin Vltava Basin Povodí Moravy ČHMÚ